sensor_id;sensor_type;location;lat;lon;timestamp;temperature;humidity
7290;DHT22;63176;52.678;13.250;2023-09-30T00:01:47;17.10;99.90
7290;DHT22;63176;52.678;13.250;2023-09-30T00:04:13;17.10;99.90
7290;DHT22;63176;52.678;13.250;2023-09-30T00:06:38;17.00;99.90
7290;DHT22;63176;52.678;13.250;2023-09-30T00:09:04;16.90;99.90
7290;DHT22;63176;52.678;13.250;2023-09-30T00:11:30;16.80;99.90
7290;DHT22;63176;52.678;13.250;2023-09-30T00:13:56;16.80;99.90
7290;DHT22;63176;52.678;13.250;2023-09-30T00:16:22;16.70;99.90
7290;DHT22;63176;52.678;13.250;2023-09-30T00:18:47;16.60;99.90
7290;DHT22;63176;52.678;13.250;2023-09-30T00:21:13;16.60;99.90
7290;DHT22;63176;52.678;13.250;2023-09-30T00:23:40;16.50;99.90
7290;DHT22;63176;52.678;13.250;2023-09-30T00:26:06;16.50;99.90
7290;DHT22;63176;52.678;13.250;2023-09-30T00:28:31;16.40;99.90
7290;DHT22;63176;52.678;13.250;2023-09-30T00:30:57;16.40;99.90
7290;DHT22;63176;52.678;13.250;2023-09-30T00:33:22;16.30;99.90
7290;DHT22;63176;52.678;13.250;2023-09-30T00:35:48;16.30;99.90
7290;DHT22;63176;52.678;13.250;2023-09-30T00:38:14;16.20;99.90
7290;DHT22;63176;52.678;13.250;2023-09-30T00:40:50;16.10;99.90
7290;DHT22;63176;52.678;13.250;2023-09-30T00:43:20;16.10;99.90
7290;DHT22;63176;52.678;13.250;2023-09-30T00:45:48;16.00;99.90
7290;DHT22;63176;52.678;13.250;2023-09-30T00:48:14;16.00;99.90
7290;DHT22;63176;52.678;13.250;2023-09-30T00:50:40;15.90;99.90
7290;DHT22;63176;52.678;13.250;2023-09-30T00:53:07;15.90;99.90
7290;DHT22;63176;52.678;13.250;2023-09-30T00:55:33;15.80;99.90
7290;DHT22;63176;52.678;13.250;2023-09-30T00:57:59;15.80;99.90
7290;DHT22;63176;52.678;13.250;2023-09-30T01:00:25;15.80;99.90
7290;DHT22;63176;52.678;13.250;2023-09-30T01:02:51;15.70;99.90
7290;DHT22;63176;52.678;13.250;2023-09-30T01:05:19;15.70;99.90
7290;DHT22;63176;52.678;13.250;2023-09-30T01:07:44;15.70;99.90
7290;DHT22;63176;52.678;13.250;2023-09-30T01:10:10;15.60;99.90
7290;DHT22;63176;52.678;13.250;2023-09-30T01:12:36;15.60;99.90
7290;DHT22;63176;52.678;13.250;2023-09-30T01:15:02;15.60;99.90
7290;DHT22;63176;52.678;13.250;2023-09-30T01:17:30;15.50;99.90
7290;DHT22;63176;52.678;13.250;2023-09-30T01:19:57;15.50;99.90
7290;DHT22;63176;52.678;13.250;2023-09-30T01:22:26;15.40;99.90
7290;DHT22;63176;52.678;13.250;2023-09-30T01:24:53;15.40;99.90
7290;DHT22;63176;52.678;13.250;2023-09-30T01:27:19;15.30;99.90
7290;DHT22;63176;52.678;13.250;2023-09-30T01:29:45;15.20;99.90
7290;DHT22;63176;52.678;13.250;2023-09-30T01:32:10;15.20;99.90
7290;DHT22;63176;52.678;13.250;2023-09-30T01:34:37;15.10;99.90
7290;DHT22;63176;52.678;13.250;2023-09-30T01:37:02;15.00;99.90
7290;DHT22;63176;52.678;13.250;2023-09-30T01:39:28;15.00;99.90
7290;DHT22;63176;52.678;13.250;2023-09-30T01:41:55;15.00;99.90
7290;DHT22;63176;52.678;13.250;2023-09-30T01:44:21;15.00;99.90
7290;DHT22;63176;52.678;13.250;2023-09-30T01:46:46;14.90;99.90
7290;DHT22;63176;52.678;13.250;2023-09-30T01:49:12;14.90;99.90
7290;DHT22;63176;52.678;13.250;2023-09-30T01:51:37;14.90;99.90
7290;DHT22;63176;52.678;13.250;2023-09-30T01:54:03;14.90;99.90
7290;DHT22;63176;52.678;13.250;2023-09-30T01:56:30;14.80;99.90
7290;DHT22;63176;52.678;13.250;2023-09-30T01:58:56;14.80;99.90
7290;DHT22;63176;52.678;13.250;2023-09-30T02:01:22;14.70;99.90
7290;DHT22;63176;52.678;13.250;2023-09-30T02:03:47;14.70;99.90
7290;DHT22;63176;52.678;13.250;2023-09-30T02:06:13;14.70;99.90
7290;DHT22;63176;52.678;13.250;2023-09-30T02:08:38;14.60;99.90
7290;DHT22;63176;52.678;13.250;2023-09-30T02:11:04;14.60;99.90
7290;DHT22;63176;52.678;13.250;2023-09-30T02:13:34;14.60;99.90
7290;DHT22;63176;52.678;13.250;2023-09-30T02:16:02;14.50;99.90
7290;DHT22;63176;52.678;13.250;2023-09-30T02:18:28;14.50;99.90
7290;DHT22;63176;52.678;13.250;2023-09-30T02:20:54;14.60;99.90
7290;DHT22;63176;52.678;13.250;2023-09-30T02:23:19;14.50;99.90
7290;DHT22;63176;52.678;13.250;2023-09-30T02:25:46;14.50;99.90
7290;DHT22;63176;52.678;13.250;2023-09-30T02:28:12;14.40;99.90
7290;DHT22;63176;52.678;13.250;2023-09-30T02:30:38;14.40;99.90
7290;DHT22;63176;52.678;13.250;2023-09-30T02:33:04;14.30;99.90
7290;DHT22;63176;52.678;13.250;2023-09-30T02:35:30;14.30;99.90
7290;DHT22;63176;52.678;13.250;2023-09-30T02:37:56;14.20;99.90
7290;DHT22;63176;52.678;13.250;2023-09-30T02:40:21;14.20;99.90
7290;DHT22;63176;52.678;13.250;2023-09-30T02:42:50;14.20;99.90
7290;DHT22;63176;52.678;13.250;2023-09-30T02:45:16;14.10;99.90
7290;DHT22;63176;52.678;13.250;2023-09-30T02:47:45;14.10;99.90
7290;DHT22;63176;52.678;13.250;2023-09-30T02:50:11;14.10;99.90
7290;DHT22;63176;52.678;13.250;2023-09-30T02:52:37;14.10;99.90
7290;DHT22;63176;52.678;13.250;2023-09-30T02:55:04;14.10;99.90
7290;DHT22;63176;52.678;13.250;2023-09-30T02:57:30;14.10;99.90
7290;DHT22;63176;52.678;13.250;2023-09-30T02:59:56;14.00;99.90
7290;DHT22;63176;52.678;13.250;2023-09-30T03:02:24;14.00;99.90
7290;DHT22;63176;52.678;13.250;2023-09-30T03:04:50;14.00;99.90
7290;DHT22;63176;52.678;13.250;2023-09-30T03:07:20;14.00;99.90
7290;DHT22;63176;52.678;13.250;2023-09-30T03:09:46;13.90;99.90
7290;DHT22;63176;52.678;13.250;2023-09-30T03:12:12;13.90;99.90
7290;DHT22;63176;52.678;13.250;2023-09-30T03:14:38;13.90;99.90
7290;DHT22;63176;52.678;13.250;2023-09-30T03:17:03;13.90;99.90
7290;DHT22;63176;52.678;13.250;2023-09-30T03:19:29;13.80;99.90
7290;DHT22;63176;52.678;13.250;2023-09-30T03:21:55;13.90;99.90
7290;DHT22;63176;52.678;13.250;2023-09-30T03:24:21;13.80;99.90
7290;DHT22;63176;52.678;13.250;2023-09-30T03:26:48;13.80;99.90
7290;DHT22;63176;52.678;13.250;2023-09-30T03:29:15;13.80;99.90
7290;DHT22;63176;52.678;13.250;2023-09-30T03:31:40;13.70;99.90
7290;DHT22;63176;52.678;13.250;2023-09-30T03:34:06;13.70;99.90
7290;DHT22;63176;52.678;13.250;2023-09-30T03:36:31;13.70;99.90
7290;DHT22;63176;52.678;13.250;2023-09-30T03:38:58;13.70;99.90
7290;DHT22;63176;52.678;13.250;2023-09-30T03:41:32;13.60;99.90
7290;DHT22;63176;52.678;13.250;2023-09-30T03:43:58;13.60;99.90
7290;DHT22;63176;52.678;13.250;2023-09-30T03:46:23;13.60;99.90
7290;DHT22;63176;52.678;13.250;2023-09-30T03:48:49;13.60;99.90
7290;DHT22;63176;52.678;13.250;2023-09-30T03:51:15;13.50;99.90
7290;DHT22;63176;52.678;13.250;2023-09-30T03:53:41;13.50;99.90
7290;DHT22;63176;52.678;13.250;2023-09-30T03:56:07;13.50;99.90
7290;DHT22;63176;52.678;13.250;2023-09-30T03:58:33;13.50;99.90
7290;DHT22;63176;52.678;13.250;2023-09-30T04:00:59;13.40;99.90
7290;DHT22;63176;52.678;13.250;2023-09-30T04:03:26;13.40;99.90
7290;DHT22;63176;52.678;13.250;2023-09-30T04:05:53;13.40;99.90
7290;DHT22;63176;52.678;13.250;2023-09-30T04:08:18;13.40;99.90
7290;DHT22;63176;52.678;13.250;2023-09-30T04:10:44;13.40;99.90
7290;DHT22;63176;52.678;13.250;2023-09-30T04:13:10;13.40;99.90
7290;DHT22;63176;52.678;13.250;2023-09-30T04:15:37;13.40;99.90
7290;DHT22;63176;52.678;13.250;2023-09-30T04:18:03;13.30;99.90
7290;DHT22;63176;52.678;13.250;2023-09-30T04:20:31;13.30;99.90
7290;DHT22;63176;52.678;13.250;2023-09-30T04:22:57;13.20;99.90
7290;DHT22;63176;52.678;13.250;2023-09-30T04:25:23;13.20;99.90
7290;DHT22;63176;52.678;13.250;2023-09-30T04:27:51;13.20;99.90
7290;DHT22;63176;52.678;13.250;2023-09-30T04:30:18;13.20;99.90
7290;DHT22;63176;52.678;13.250;2023-09-30T04:32:44;13.20;99.90
7290;DHT22;63176;52.678;13.250;2023-09-30T04:35:10;13.20;99.90
7290;DHT22;63176;52.678;13.250;2023-09-30T04:37:36;13.20;99.90
7290;DHT22;63176;52.678;13.250;2023-09-30T04:40:07;13.20;99.90
7290;DHT22;63176;52.678;13.250;2023-09-30T04:42:41;13.10;99.90
7290;DHT22;63176;52.678;13.250;2023-09-30T04:45:10;13.10;99.90
7290;DHT22;63176;52.678;13.250;2023-09-30T04:47:36;13.10;99.90
7290;DHT22;63176;52.678;13.250;2023-09-30T04:50:08;13.10;99.90
7290;DHT22;63176;52.678;13.250;2023-09-30T04:52:37;13.20;99.90
7290;DHT22;63176;52.678;13.250;2023-09-30T04:55:04;13.10;99.90
7290;DHT22;63176;52.678;13.250;2023-09-30T04:57:30;13.10;99.90
7290;DHT22;63176;52.678;13.250;2023-09-30T05:00:00;13.10;99.90
7290;DHT22;63176;52.678;13.250;2023-09-30T05:02:27;13.00;99.90
7290;DHT22;63176;52.678;13.250;2023-09-30T05:04:54;13.00;99.90
7290;DHT22;63176;52.678;13.250;2023-09-30T05:07:22;13.00;99.90
7290;DHT22;63176;52.678;13.250;2023-09-30T05:09:48;13.00;99.90
7290;DHT22;63176;52.678;13.250;2023-09-30T05:12:14;13.00;99.90
7290;DHT22;63176;52.678;13.250;2023-09-30T05:14:41;12.90;99.90
7290;DHT22;63176;52.678;13.250;2023-09-30T05:17:09;13.00;99.90
7290;DHT22;63176;52.678;13.250;2023-09-30T05:19:34;13.00;99.90
7290;DHT22;63176;52.678;13.250;2023-09-30T05:22:02;13.00;99.90
7290;DHT22;63176;52.678;13.250;2023-09-30T05:24:28;13.00;99.90
7290;DHT22;63176;52.678;13.250;2023-09-30T05:26:54;13.00;99.90
7290;DHT22;63176;52.678;13.250;2023-09-30T05:29:20;13.00;99.90
7290;DHT22;63176;52.678;13.250;2023-09-30T05:31:46;12.90;99.90
7290;DHT22;63176;52.678;13.250;2023-09-30T05:34:11;12.90;99.90
7290;DHT22;63176;52.678;13.250;2023-09-30T05:36:37;13.00;99.90
7290;DHT22;63176;52.678;13.250;2023-09-30T05:39:02;13.00;99.90
7290;DHT22;63176;52.678;13.250;2023-09-30T05:41:32;13.00;99.90
7290;DHT22;63176;52.678;13.250;2023-09-30T05:43:58;13.00;99.90
7290;DHT22;63176;52.678;13.250;2023-09-30T05:46:25;13.00;99.90
7290;DHT22;63176;52.678;13.250;2023-09-30T05:48:52;13.10;99.90
7290;DHT22;63176;52.678;13.250;2023-09-30T05:51:18;13.00;1.00
7290;DHT22;63176;52.678;13.250;2023-09-30T05:53:44;13.00;1.00
7290;DHT22;63176;52.678;13.250;2023-09-30T05:56:10;13.00;1.00
7290;DHT22;63176;52.678;13.250;2023-09-30T05:58:36;13.10;1.00
7290;DHT22;63176;52.678;13.250;2023-09-30T06:01:10;13.10;1.00
7290;DHT22;63176;52.678;13.250;2023-09-30T06:03:45;13.20;1.00
7290;DHT22;63176;52.678;13.250;2023-09-30T06:06:13;13.30;1.00
7290;DHT22;63176;52.678;13.250;2023-09-30T06:08:39;13.40;1.00
7290;DHT22;63176;52.678;13.250;2023-09-30T06:11:05;13.40;1.00
7290;DHT22;63176;52.678;13.250;2023-09-30T06:13:32;13.50;1.00
7290;DHT22;63176;52.678;13.250;2023-09-30T06:15:58;13.50;1.00
7290;DHT22;63176;52.678;13.250;2023-09-30T06:18:24;13.50;1.00
7290;DHT22;63176;52.678;13.250;2023-09-30T06:20:50;13.60;1.00
7290;DHT22;63176;52.678;13.250;2023-09-30T06:23:16;13.60;1.00
7290;DHT22;63176;52.678;13.250;2023-09-30T06:25:42;13.70;1.00
7290;DHT22;63176;52.678;13.250;2023-09-30T06:28:08;13.70;1.00
7290;DHT22;63176;52.678;13.250;2023-09-30T06:30:34;13.70;1.00
7290;DHT22;63176;52.678;13.250;2023-09-30T06:33:00;13.80;1.00
7290;DHT22;63176;52.678;13.250;2023-09-30T06:35:29;13.80;99.90
7290;DHT22;63176;52.678;13.250;2023-09-30T06:38:03;13.80;99.90
7290;DHT22;63176;52.678;13.250;2023-09-30T06:40:28;13.80;99.90
7290;DHT22;63176;52.678;13.250;2023-09-30T06:42:54;13.80;99.90
7290;DHT22;63176;52.678;13.250;2023-09-30T06:45:19;13.80;99.90
7290;DHT22;63176;52.678;13.250;2023-09-30T06:47:47;13.80;99.90
7290;DHT22;63176;52.678;13.250;2023-09-30T06:50:13;13.90;1.00
7290;DHT22;63176;52.678;13.250;2023-09-30T06:52:43;13.90;1.00
7290;DHT22;63176;52.678;13.250;2023-09-30T06:55:11;14.00;1.00
7290;DHT22;63176;52.678;13.250;2023-09-30T06:57:39;14.10;99.90
7290;DHT22;63176;52.678;13.250;2023-09-30T07:00:10;14.20;99.90
7290;DHT22;63176;52.678;13.250;2023-09-30T07:02:38;14.30;99.90
7290;DHT22;63176;52.678;13.250;2023-09-30T07:05:08;14.30;99.90
7290;DHT22;63176;52.678;13.250;2023-09-30T07:07:34;14.40;99.90
7290;DHT22;63176;52.678;13.250;2023-09-30T07:09:59;14.50;99.90
7290;DHT22;63176;52.678;13.250;2023-09-30T07:12:25;14.50;99.90
7290;DHT22;63176;52.678;13.250;2023-09-30T07:14:51;14.60;99.90
7290;DHT22;63176;52.678;13.250;2023-09-30T07:17:16;14.60;99.90
7290;DHT22;63176;52.678;13.250;2023-09-30T07:19:42;14.70;99.90
7290;DHT22;63176;52.678;13.250;2023-09-30T07:22:08;14.80;99.90
7290;DHT22;63176;52.678;13.250;2023-09-30T07:24:34;14.80;99.90
7290;DHT22;63176;52.678;13.250;2023-09-30T07:26:59;14.80;99.90
7290;DHT22;63176;52.678;13.250;2023-09-30T07:29:25;14.80;99.90
7290;DHT22;63176;52.678;13.250;2023-09-30T07:31:50;14.90;99.90
7290;DHT22;63176;52.678;13.250;2023-09-30T07:34:16;14.90;99.90
7290;DHT22;63176;52.678;13.250;2023-09-30T07:36:42;15.10;99.90
7290;DHT22;63176;52.678;13.250;2023-09-30T07:39:08;15.10;99.90
7290;DHT22;63176;52.678;13.250;2023-09-30T07:41:37;15.10;99.90
7290;DHT22;63176;52.678;13.250;2023-09-30T07:44:02;15.20;99.90
7290;DHT22;63176;52.678;13.250;2023-09-30T07:46:28;15.20;99.90
7290;DHT22;63176;52.678;13.250;2023-09-30T07:48:54;15.10;99.90
7290;DHT22;63176;52.678;13.250;2023-09-30T07:51:20;15.20;99.90
7290;DHT22;63176;52.678;13.250;2023-09-30T07:53:46;15.10;99.90
7290;DHT22;63176;52.678;13.250;2023-09-30T07:56:12;15.10;99.90
7290;DHT22;63176;52.678;13.250;2023-09-30T07:58:38;15.10;99.90
7290;DHT22;63176;52.678;13.250;2023-09-30T08:01:04;15.10;99.90
7290;DHT22;63176;52.678;13.250;2023-09-30T08:03:30;15.10;99.90
7290;DHT22;63176;52.678;13.250;2023-09-30T08:05:56;15.10;99.90
7290;DHT22;63176;52.678;13.250;2023-09-30T08:08:21;15.10;99.90
7290;DHT22;63176;52.678;13.250;2023-09-30T08:10:52;15.20;99.90
7290;DHT22;63176;52.678;13.250;2023-09-30T08:13:22;15.20;99.90
7290;DHT22;63176;52.678;13.250;2023-09-30T08:15:51;15.20;99.90
7290;DHT22;63176;52.678;13.250;2023-09-30T08:18:18;15.20;99.90
7290;DHT22;63176;52.678;13.250;2023-09-30T08:20:44;15.20;99.90
7290;DHT22;63176;52.678;13.250;2023-09-30T08:23:10;15.20;99.90
7290;DHT22;63176;52.678;13.250;2023-09-30T08:25:37;15.20;99.90
7290;DHT22;63176;52.678;13.250;2023-09-30T08:28:04;15.20;99.90
7290;DHT22;63176;52.678;13.250;2023-09-30T08:30:29;15.30;99.90
7290;DHT22;63176;52.678;13.250;2023-09-30T08:32:56;15.30;99.90
7290;DHT22;63176;52.678;13.250;2023-09-30T08:35:21;15.40;99.90
7290;DHT22;63176;52.678;13.250;2023-09-30T08:37:47;15.30;99.90
7290;DHT22;63176;52.678;13.250;2023-09-30T08:40:12;15.40;99.90
7290;DHT22;63176;52.678;13.250;2023-09-30T08:42:39;15.50;99.90
7290;DHT22;63176;52.678;13.250;2023-09-30T08:45:05;15.60;99.90
7290;DHT22;63176;52.678;13.250;2023-09-30T08:47:34;15.70;99.90
7290;DHT22;63176;52.678;13.250;2023-09-30T08:50:03;15.80;99.90
7290;DHT22;63176;52.678;13.250;2023-09-30T08:52:38;15.90;99.90
7290;DHT22;63176;52.678;13.250;2023-09-30T08:55:07;16.00;99.90
7290;DHT22;63176;52.678;13.250;2023-09-30T08:57:37;16.00;99.90
7290;DHT22;63176;52.678;13.250;2023-09-30T09:00:11;16.10;99.90
7290;DHT22;63176;52.678;13.250;2023-09-30T09:02:43;16.20;99.90
7290;DHT22;63176;52.678;13.250;2023-09-30T09:05:09;16.40;99.90
7290;DHT22;63176;52.678;13.250;2023-09-30T09:07:35;16.50;99.90
7290;DHT22;63176;52.678;13.250;2023-09-30T09:12:30;16.80;99.90
7290;DHT22;63176;52.678;13.250;2023-09-30T09:14:56;17.00;99.90
7290;DHT22;63176;52.678;13.250;2023-09-30T09:17:21;17.20;99.90
7290;DHT22;63176;52.678;13.250;2023-09-30T09:20:00;17.30;99.90
7290;DHT22;63176;52.678;13.250;2023-09-30T09:22:41;17.30;99.90
7290;DHT22;63176;52.678;13.250;2023-09-30T09:25:07;17.40;99.90
7290;DHT22;63176;52.678;13.250;2023-09-30T09:27:36;17.50;99.90
7290;DHT22;63176;52.678;13.250;2023-09-30T09:32:59;17.60;99.90
7290;DHT22;63176;52.678;13.250;2023-09-30T09:35:33;17.70;99.90
7290;DHT22;63176;52.678;13.250;2023-09-30T09:38:05;17.70;99.90
7290;DHT22;63176;52.678;13.250;2023-09-30T09:40:32;17.70;99.90
7290;DHT22;63176;52.678;13.250;2023-09-30T09:42:59;17.80;99.90
7290;DHT22;63176;52.678;13.250;2023-09-30T09:45:30;18.00;99.90
7290;DHT22;63176;52.678;13.250;2023-09-30T09:47:58;18.10;99.90
7290;DHT22;63176;52.678;13.250;2023-09-30T09:50:24;18.20;99.90
7290;DHT22;63176;52.678;13.250;2023-09-30T09:52:54;18.40;99.90
7290;DHT22;63176;52.678;13.250;2023-09-30T09:55:22;18.50;99.90
7290;DHT22;63176;52.678;13.250;2023-09-30T09:57:49;18.60;99.90
7290;DHT22;63176;52.678;13.250;2023-09-30T10:00:17;18.70;99.90
7290;DHT22;63176;52.678;13.250;2023-09-30T10:02:47;18.70;99.90
7290;DHT22;63176;52.678;13.250;2023-09-30T10:05:14;18.70;99.90
7290;DHT22;63176;52.678;13.250;2023-09-30T10:10:44;18.80;99.90
7290;DHT22;63176;52.678;13.250;2023-09-30T10:19:16;19.10;99.90
7290;DHT22;63176;52.678;13.250;2023-09-30T10:24:44;19.30;99.90
7290;DHT22;63176;52.678;13.250;2023-09-30T10:40:58;19.10;99.90
7290;DHT22;63176;52.678;13.250;2023-09-30T10:43:36;19.10;99.90
7290;DHT22;63176;52.678;13.250;2023-09-30T10:46:03;19.10;99.90
7290;DHT22;63176;52.678;13.250;2023-09-30T10:48:33;19.00;99.90
7290;DHT22;63176;52.678;13.250;2023-09-30T10:51:22;19.00;99.90
7290;DHT22;63176;52.678;13.250;2023-09-30T10:53:54;19.00;99.90
7290;DHT22;63176;52.678;13.250;2023-09-30T10:56:36;18.90;99.90
7290;DHT22;63176;52.678;13.250;2023-09-30T10:59:21;18.90;99.90
7290;DHT22;63176;52.678;13.250;2023-09-30T11:01:48;18.90;99.90
7290;DHT22;63176;52.678;13.250;2023-09-30T11:04:14;18.90;99.90
7290;DHT22;63176;52.678;13.250;2023-09-30T11:06:41;18.80;99.90
7290;DHT22;63176;52.678;13.250;2023-09-30T11:09:07;18.70;99.90
7290;DHT22;63176;52.678;13.250;2023-09-30T11:11:43;18.70;99.90
7290;DHT22;63176;52.678;13.250;2023-09-30T11:16:46;18.80;99.90
7290;DHT22;63176;52.678;13.250;2023-09-30T11:19:12;18.80;99.90
7290;DHT22;63176;52.678;13.250;2023-09-30T11:21:42;18.80;99.90
7290;DHT22;63176;52.678;13.250;2023-09-30T11:24:09;18.80;99.90
7290;DHT22;63176;52.678;13.250;2023-09-30T11:26:35;18.90;99.90
7290;DHT22;63176;52.678;13.250;2023-09-30T11:29:19;18.80;99.90
7290;DHT22;63176;52.678;13.250;2023-09-30T11:31:47;18.90;99.90
7290;DHT22;63176;52.678;13.250;2023-09-30T11:34:17;18.80;99.90
7290;DHT22;63176;52.678;13.250;2023-09-30T11:36:51;18.80;99.90
7290;DHT22;63176;52.678;13.250;2023-09-30T11:41:52;18.60;99.90
7290;DHT22;63176;52.678;13.250;2023-09-30T11:44:18;18.60;99.90
7290;DHT22;63176;52.678;13.250;2023-09-30T11:46:51;18.60;99.90
7290;DHT22;63176;52.678;13.250;2023-09-30T11:49:40;18.60;99.90
7290;DHT22;63176;52.678;13.250;2023-09-30T11:52:10;18.60;99.90
7290;DHT22;63176;52.678;13.250;2023-09-30T11:54:38;18.70;99.90
7290;DHT22;63176;52.678;13.250;2023-09-30T11:57:09;18.80;99.90
7290;DHT22;63176;52.678;13.250;2023-09-30T11:59:36;18.90;99.90
7290;DHT22;63176;52.678;13.250;2023-09-30T12:02:02;19.00;99.90
7290;DHT22;63176;52.678;13.250;2023-09-30T12:04:29;19.20;99.90
7290;DHT22;63176;52.678;13.250;2023-09-30T12:06:55;19.30;99.90
7290;DHT22;63176;52.678;13.250;2023-09-30T12:09:22;19.40;99.90
7290;DHT22;63176;52.678;13.250;2023-09-30T12:11:49;19.50;99.90
7290;DHT22;63176;52.678;13.250;2023-09-30T12:14:14;19.70;99.90
7290;DHT22;63176;52.678;13.250;2023-09-30T12:16:41;19.70;99.90
7290;DHT22;63176;52.678;13.250;2023-09-30T12:19:07;19.80;99.90
7290;DHT22;63176;52.678;13.250;2023-09-30T12:21:34;19.80;99.90
7290;DHT22;63176;52.678;13.250;2023-09-30T12:24:00;20.00;99.90
7290;DHT22;63176;52.678;13.250;2023-09-30T12:26:31;20.10;99.90
7290;DHT22;63176;52.678;13.250;2023-09-30T12:29:00;20.20;99.90
7290;DHT22;63176;52.678;13.250;2023-09-30T12:31:25;20.30;99.90
7290;DHT22;63176;52.678;13.250;2023-09-30T12:33:55;20.40;99.90
7290;DHT22;63176;52.678;13.250;2023-09-30T12:36:21;20.40;99.90
7290;DHT22;63176;52.678;13.250;2023-09-30T12:38:47;20.40;99.90
7290;DHT22;63176;52.678;13.250;2023-09-30T12:41:13;20.30;99.90
7290;DHT22;63176;52.678;13.250;2023-09-30T12:43:40;20.30;99.90
7290;DHT22;63176;52.678;13.250;2023-09-30T12:46:08;20.20;99.90
7290;DHT22;63176;52.678;13.250;2023-09-30T12:48:34;20.30;99.90
7290;DHT22;63176;52.678;13.250;2023-09-30T12:51:00;20.30;99.90
7290;DHT22;63176;52.678;13.250;2023-09-30T12:53:25;20.30;99.90
7290;DHT22;63176;52.678;13.250;2023-09-30T12:55:51;20.40;99.90
7290;DHT22;63176;52.678;13.250;2023-09-30T12:58:17;20.40;99.90
7290;DHT22;63176;52.678;13.250;2023-09-30T13:00:43;20.40;99.90
7290;DHT22;63176;52.678;13.250;2023-09-30T13:03:09;20.40;99.90
7290;DHT22;63176;52.678;13.250;2023-09-30T13:05:34;20.30;99.90
7290;DHT22;63176;52.678;13.250;2023-09-30T13:08:00;20.20;99.90
7290;DHT22;63176;52.678;13.250;2023-09-30T13:10:27;20.20;99.90
7290;DHT22;63176;52.678;13.250;2023-09-30T13:12:52;20.20;99.90
7290;DHT22;63176;52.678;13.250;2023-09-30T13:15:19;20.10;99.90
7290;DHT22;63176;52.678;13.250;2023-09-30T13:17:46;20.00;99.90
7290;DHT22;63176;52.678;13.250;2023-09-30T13:20:12;19.90;99.90
7290;DHT22;63176;52.678;13.250;2023-09-30T13:22:40;19.90;99.90
7290;DHT22;63176;52.678;13.250;2023-09-30T13:25:06;19.90;99.90
7290;DHT22;63176;52.678;13.250;2023-09-30T13:27:33;19.90;99.90
7290;DHT22;63176;52.678;13.250;2023-09-30T13:29:59;19.90;99.90
7290;DHT22;63176;52.678;13.250;2023-09-30T13:32:25;20.00;99.90
7290;DHT22;63176;52.678;13.250;2023-09-30T13:34:52;20.00;99.90
7290;DHT22;63176;52.678;13.250;2023-09-30T13:37:17;20.10;99.90
7290;DHT22;63176;52.678;13.250;2023-09-30T13:39:43;20.00;99.90
7290;DHT22;63176;52.678;13.250;2023-09-30T13:42:08;19.90;99.90
7290;DHT22;63176;52.678;13.250;2023-09-30T13:44:34;19.90;99.90
7290;DHT22;63176;52.678;13.250;2023-09-30T13:47:00;19.70;99.90
7290;DHT22;63176;52.678;13.250;2023-09-30T13:49:25;19.60;99.90
7290;DHT22;63176;52.678;13.250;2023-09-30T13:51:51;19.50;99.90
7290;DHT22;63176;52.678;13.250;2023-09-30T13:54:16;19.40;99.90
7290;DHT22;63176;52.678;13.250;2023-09-30T13:56:42;19.40;99.90
7290;DHT22;63176;52.678;13.250;2023-09-30T13:59:10;19.30;99.90
7290;DHT22;63176;52.678;13.250;2023-09-30T14:01:35;19.30;99.90
7290;DHT22;63176;52.678;13.250;2023-09-30T14:04:01;19.30;99.90
7290;DHT22;63176;52.678;13.250;2023-09-30T14:06:27;19.20;99.90
7290;DHT22;63176;52.678;13.250;2023-09-30T14:08:55;19.10;99.90
7290;DHT22;63176;52.678;13.250;2023-09-30T14:11:21;19.10;99.90
7290;DHT22;63176;52.678;13.250;2023-09-30T14:13:46;19.00;99.90
7290;DHT22;63176;52.678;13.250;2023-09-30T14:16:12;19.00;99.90
7290;DHT22;63176;52.678;13.250;2023-09-30T14:18:39;18.90;99.90
7290;DHT22;63176;52.678;13.250;2023-09-30T14:21:05;18.80;99.90
7290;DHT22;63176;52.678;13.250;2023-09-30T14:23:31;18.80;99.90
7290;DHT22;63176;52.678;13.250;2023-09-30T14:25:57;18.80;99.90
7290;DHT22;63176;52.678;13.250;2023-09-30T14:28:23;18.80;99.90
7290;DHT22;63176;52.678;13.250;2023-09-30T14:30:49;18.70;99.90
7290;DHT22;63176;52.678;13.250;2023-09-30T14:33:18;18.70;99.90
7290;DHT22;63176;52.678;13.250;2023-09-30T14:35:47;18.70;99.90
7290;DHT22;63176;52.678;13.250;2023-09-30T14:38:13;18.70;99.90
7290;DHT22;63176;52.678;13.250;2023-09-30T14:40:40;18.70;99.90
7290;DHT22;63176;52.678;13.250;2023-09-30T14:43:07;18.70;99.90
7290;DHT22;63176;52.678;13.250;2023-09-30T14:45:37;18.70;99.90
7290;DHT22;63176;52.678;13.250;2023-09-30T14:48:05;18.70;99.90
7290;DHT22;63176;52.678;13.250;2023-09-30T14:50:30;18.70;99.90
7290;DHT22;63176;52.678;13.250;2023-09-30T14:52:57;18.80;99.90
7290;DHT22;63176;52.678;13.250;2023-09-30T14:55:31;18.70;99.90
7290;DHT22;63176;52.678;13.250;2023-09-30T14:57:56;18.80;99.90
7290;DHT22;63176;52.678;13.250;2023-09-30T15:00:22;18.80;99.90
7290;DHT22;63176;52.678;13.250;2023-09-30T15:02:50;18.80;99.90
7290;DHT22;63176;52.678;13.250;2023-09-30T15:05:16;18.80;99.90
7290;DHT22;63176;52.678;13.250;2023-09-30T15:07:42;18.80;99.90
7290;DHT22;63176;52.678;13.250;2023-09-30T15:10:08;18.80;99.90
7290;DHT22;63176;52.678;13.250;2023-09-30T15:12:34;18.80;99.90
7290;DHT22;63176;52.678;13.250;2023-09-30T15:15:00;18.80;99.90
7290;DHT22;63176;52.678;13.250;2023-09-30T15:17:26;18.80;99.90
7290;DHT22;63176;52.678;13.250;2023-09-30T15:19:51;18.80;99.90
7290;DHT22;63176;52.678;13.250;2023-09-30T15:22:18;18.80;99.90
7290;DHT22;63176;52.678;13.250;2023-09-30T15:24:43;18.70;99.90
7290;DHT22;63176;52.678;13.250;2023-09-30T15:27:09;18.70;99.90
7290;DHT22;63176;52.678;13.250;2023-09-30T15:29:35;18.60;99.90
7290;DHT22;63176;52.678;13.250;2023-09-30T15:32:02;18.60;99.90
7290;DHT22;63176;52.678;13.250;2023-09-30T15:34:28;18.50;99.90
7290;DHT22;63176;52.678;13.250;2023-09-30T15:36:54;18.50;99.90
7290;DHT22;63176;52.678;13.250;2023-09-30T15:39:19;18.50;99.90
7290;DHT22;63176;52.678;13.250;2023-09-30T15:41:45;18.50;99.90
7290;DHT22;63176;52.678;13.250;2023-09-30T15:44:10;18.40;99.90
7290;DHT22;63176;52.678;13.250;2023-09-30T15:46:36;18.40;99.90
7290;DHT22;63176;52.678;13.250;2023-09-30T15:49:02;18.30;99.90
7290;DHT22;63176;52.678;13.250;2023-09-30T15:51:27;18.30;99.90
7290;DHT22;63176;52.678;13.250;2023-09-30T15:53:53;18.20;99.90
7290;DHT22;63176;52.678;13.250;2023-09-30T15:56:19;18.20;99.90
7290;DHT22;63176;52.678;13.250;2023-09-30T15:58:44;18.10;99.90
7290;DHT22;63176;52.678;13.250;2023-09-30T16:04:32;18.10;99.90
7290;DHT22;63176;52.678;13.250;2023-09-30T16:06:58;18.00;99.90
7290;DHT22;63176;52.678;13.250;2023-09-30T16:09:25;17.90;99.90
7290;DHT22;63176;52.678;13.250;2023-09-30T16:11:51;17.80;99.90